Time;durP1;ratioP1;P1;durP2;ratioP2;P2;SDS_P1;SDS_P2;PMS_P1;PMS_P2;Temp;Humidity;BMP_temperature;BMP_pressure;BME280_temperature;BME280_humidity;BME280_pressure;Samples;Min_cycle;Max_cycle;Signal;HPM_P1;HPM_P2
2022/04/12 00:00:37;;;;;;;11.27;7.75;;;6.50;69.00;;;;;;5043965;28;20036;-71
2022/04/12 00:03:03;;;;;;;12.88;8.32;;;6.50;69.10;;;;;;5055082;28;20042;-71
2022/04/12 00:05:29;;;;;;;12.18;7.28;;;6.40;69.10;;;;;;5042689;28;20045;-71
2022/04/12 00:07:55;;;;;;;11.73;7.90;;;6.40;69.20;;;;;;5059820;28;20041;-71
2022/04/12 00:10:21;;;;;;;12.47;8.20;;;6.30;69.20;;;;;;5045438;28;20427;-71
2022/04/12 00:12:48;;;;;;;11.65;7.95;;;6.30;69.40;;;;;;5057322;28;20077;-71
2022/04/12 00:15:13;;;;;;;12.70;7.82;;;6.20;69.50;;;;;;5061005;28;20443;-71
2022/04/12 00:20:26;;;;;;;14.30;8.23;;;6.10;69.50;;;;;;5065276;28;20044;-71
2022/04/12 00:22:55;;;;;;;13.20;8.35;;;6.10;69.50;;;;;;5060791;28;20037;-71
2022/04/12 00:25:22;;;;;;;14.23;8.57;;;6.00;69.70;;;;;;5044213;28;20116;-71
2022/04/12 00:27:52;;;;;;;14.98;8.82;;;5.90;69.80;;;;;;5051586;28;20048;-71
2022/04/12 00:30:18;;;;;;;13.45;9.50;;;5.90;69.80;;;;;;5040679;28;20048;-71
2022/04/12 00:32:45;;;;;;;17.30;9.80;;;5.90;69.80;;;;;;5035963;28;20036;-71
2022/04/12 00:35:11;;;;;;;14.75;9.55;;;5.90;70.00;;;;;;5052364;28;20143;-71
2022/04/12 00:37:37;;;;;;;14.17;9.63;;;5.90;69.90;;;;;;5039067;28;20128;-71
2022/04/12 00:40:04;;;;;;;14.10;9.77;;;5.80;69.90;;;;;;5035030;28;20527;-71
2022/04/12 00:42:31;;;;;;;13.60;9.38;;;5.80;70.00;;;;;;5037860;28;20323;-71
2022/04/12 00:44:57;;;;;;;16.00;10.07;;;5.80;70.00;;;;;;5059687;28;20032;-71
2022/04/12 00:47:24;;;;;;;14.15;9.50;;;5.70;70.30;;;;;;5062543;28;20040;-71
2022/04/12 00:49:49;;;;;;;17.42;10.18;;;5.70;70.00;;;;;;5044821;28;20043;-71
2022/04/12 00:52:16;;;;;;;15.87;10.40;;;5.60;70.20;;;;;;5054453;28;20098;-71
2022/04/12 00:54:43;;;;;;;16.65;9.88;;;5.60;70.30;;;;;;5046302;28;20073;-71
2022/04/12 00:57:10;;;;;;;14.55;9.45;;;5.50;70.40;;;;;;5050718;28;20559;-71
2022/04/12 00:59:36;;;;;;;20.42;11.40;;;5.50;70.40;;;;;;5064360;28;20055;-71
2022/04/12 01:02:06;;;;;;;15.50;10.07;;;5.50;70.30;;;;;;5067563;28;20052;-71
2022/04/12 01:04:33;;;;;;;14.70;11.05;;;5.50;70.40;;;;;;5029132;28;20052;-71
2022/04/12 01:07:00;;;;;;;14.60;10.25;;;5.40;70.70;;;;;;5062075;28;21965;-71
2022/04/12 01:09:26;;;;;;;14.77;11.07;;;5.40;70.70;;;;;;5041555;28;20040;-71
2022/04/12 01:11:56;;;;;;;15.52;10.10;;;5.30;70.90;;;;;;5058345;28;20127;-70
2022/04/12 01:14:24;;;;;;;17.42;11.48;;;5.30;70.70;;;;;;5042889;28;20044;-71
2022/04/12 01:16:50;;;;;;;15.32;10.25;;;5.30;70.80;;;;;;5058876;28;20119;-71
2022/04/12 01:19:17;;;;;;;14.73;10.48;;;5.20;70.90;;;;;;5039610;28;20098;-71
2022/04/12 01:21:46;;;;;;;13.05;10.00;;;5.20;70.80;;;;;;5034652;28;20075;-71
2022/04/12 01:24:13;;;;;;;16.45;10.35;;;5.20;71.00;;;;;;5067306;28;20040;-71
2022/04/12 01:26:40;;;;;;;15.02;10.70;;;5.10;71.30;;;;;;5066957;28;20426;-71
2022/04/12 01:29:05;;;;;;;15.10;10.38;;;5.10;71.30;;;;;;5042712;28;20039;-71
2022/04/12 01:31:31;;;;;;;15.57;10.93;;;5.10;71.50;;;;;;5023048;28;20040;-71
2022/04/12 01:33:57;;;;;;;16.50;10.70;;;5.00;71.70;;;;;;5053457;28;20093;-71
2022/04/12 01:36:23;;;;;;;17.20;10.93;;;5.00;72.00;;;;;;5055315;28;20079;-71
2022/04/12 01:38:48;;;;;;;14.60;10.90;;;5.00;71.60;;;;;;5046312;28;20045;-71
2022/04/12 01:41:14;;;;;;;14.83;9.90;;;5.00;71.60;;;;;;5021052;28;20131;-71
2022/04/12 01:43:40;;;;;;;15.67;10.47;;;5.00;71.40;;;;;;5068469;28;20036;-71
2022/04/12 01:46:06;;;;;;;16.17;11.32;;;5.00;71.50;;;;;;5060954;28;20071;-71
2022/04/12 01:48:31;;;;;;;15.40;10.50;;;5.00;71.40;;;;;;5065894;28;20036;-71
2022/04/12 01:50:57;;;;;;;16.97;11.47;;;4.90;71.80;;;;;;5058086;28;20043;-71
2022/04/12 01:53:23;;;;;;;20.03;11.60;;;4.90;71.70;;;;;;5051103;28;20044;-71
2022/04/12 01:55:48;;;;;;;13.80;9.90;;;4.90;72.00;;;;;;5051240;28;20036;-71
2022/04/12 01:58:14;;;;;;;14.50;11.13;;;4.80;72.00;;;;;;5031330;28;20408;-71
2022/04/12 02:00:42;;;;;;;18.90;11.03;;;4.80;71.90;;;;;;5072072;28;20047;-71
2022/04/12 02:03:09;;;;;;;15.63;10.30;;;4.80;71.80;;;;;;5020291;28;20048;-70
2022/04/12 02:05:35;;;;;;;18.25;11.68;;;4.80;71.90;;;;;;5061923;28;20749;-71
2022/04/12 02:08:01;;;;;;;15.43;10.63;;;4.80;72.00;;;;;;5056554;28;20039;-70
2022/04/12 02:10:26;;;;;;;18.83;11.33;;;4.70;71.90;;;;;;5056194;28;20044;-70
2022/04/12 02:12:52;;;;;;;17.33;11.57;;;4.70;71.70;;;;;;5064803;28;20833;-70
2022/04/12 02:15:18;;;;;;;15.23;10.77;;;4.60;71.80;;;;;;5062100;28;20900;-70
2022/04/12 02:17:43;;;;;;;16.67;11.73;;;4.60;72.20;;;;;;5062270;28;20036;-71
2022/04/12 02:20:10;;;;;;;21.17;12.17;;;4.50;72.10;;;;;;5061710;28;20177;-70
2022/04/12 02:22:36;;;;;;;17.38;11.77;;;4.50;72.10;;;;;;5056862;28;20558;-70
2022/04/12 02:25:03;;;;;;;18.20;11.77;;;4.50;72.00;;;;;;5050484;28;20051;-71
2022/04/12 02:27:29;;;;;;;16.45;11.27;;;4.50;72.10;;;;;;5040185;28;20558;-71
2022/04/12 02:29:55;;;;;;;15.50;10.77;;;4.40;72.20;;;;;;5054307;28;20060;-70
2022/04/12 02:32:20;;;;;;;15.50;10.83;;;4.40;72.50;;;;;;5034587;28;20050;-71
2022/04/12 02:34:46;;;;;;;20.23;12.63;;;4.40;72.50;;;;;;5053080;28;20033;-70
2022/04/12 02:37:12;;;;;;;18.33;11.93;;;4.40;72.60;;;;;;5061257;28;20043;-70
2022/04/12 02:39:38;;;;;;;17.17;11.30;;;4.40;72.60;;;;;;5047614;28;20108;-70
2022/04/12 02:42:04;;;;;;;16.33;11.40;;;4.40;72.80;;;;;;5042908;28;20040;-70
2022/04/12 02:44:29;;;;;;;15.15;11.43;;;4.40;72.70;;;;;;5031342;28;20036;-70
2022/04/12 02:46:55;;;;;;;18.37;11.87;;;4.40;72.80;;;;;;5062229;28;20077;-70
2022/04/12 02:49:21;;;;;;;20.40;12.07;;;4.50;72.60;;;;;;5041079;28;20147;-70
2022/04/12 02:51:47;;;;;;;18.77;12.03;;;4.50;72.60;;;;;;5057272;28;20565;-70
2022/04/12 02:54:13;;;;;;;17.93;11.47;;;4.50;72.50;;;;;;5044553;28;20373;-70
2022/04/12 02:56:39;;;;;;;18.08;12.07;;;4.50;72.50;;;;;;5037359;28;20612;-70
2022/04/12 02:59:04;;;;;;;14.40;11.13;;;4.50;72.60;;;;;;5049294;28;20119;-70
2022/04/12 03:01:31;;;;;;;19.07;12.00;;;4.50;72.60;;;;;;5053491;28;20040;-70
2022/04/12 03:03:56;;;;;;;19.42;12.60;;;4.50;72.60;;;;;;5043207;28;20094;-70
2022/04/12 03:06:23;;;;;;;16.60;11.43;;;4.60;72.70;;;;;;5062971;28;20043;-70
2022/04/12 03:08:48;;;;;;;16.88;12.27;;;4.50;72.60;;;;;;5047880;28;20044;-70
2022/04/12 03:11:14;;;;;;;17.77;11.73;;;4.60;72.60;;;;;;5012813;28;20054;-71
2022/04/12 03:13:41;;;;;;;17.55;11.93;;;4.60;72.60;;;;;;5063252;28;20493;-71
2022/04/12 03:16:06;;;;;;;18.63;12.07;;;4.60;72.70;;;;;;5054794;28;20040;-70
2022/04/12 03:18:32;;;;;;;18.47;12.80;;;4.60;72.60;;;;;;5055967;28;20059;-70
2022/04/12 03:20:58;;;;;;;18.30;11.87;;;4.60;72.70;;;;;;5031898;28;20900;-70
2022/04/12 03:23:23;;;;;;;17.53;12.10;;;4.60;72.60;;;;;;5065777;28;20584;-70
2022/04/12 03:25:52;;;;;;;14.53;11.00;;;4.60;72.50;;;;;;5065081;28;20271;-70
2022/04/12 03:28:17;;;;;;;18.20;11.77;;;4.60;72.50;;;;;;5049518;28;20036;-70
2022/04/12 03:30:43;;;;;;;13.97;10.97;;;4.60;72.30;;;;;;5063092;28;20052;-71
2022/04/12 03:33:09;;;;;;;17.07;11.60;;;4.60;72.30;;;;;;5058861;28;20048;-71
2022/04/12 03:35:35;;;;;;;15.93;11.87;;;4.60;72.30;;;;;;5038893;28;20308;-71
2022/04/12 03:38:01;;;;;;;17.63;12.67;;;4.50;72.40;;;;;;5043780;28;20100;-71
2022/04/12 03:40:32;;;;;;;15.80;12.10;;;4.60;72.40;;;;;;5049765;28;20097;-71
2022/04/12 03:43:00;;;;;;;16.98;12.05;;;4.60;72.60;;;;;;5061917;28;20302;-71
2022/04/12 03:45:26;;;;;;;16.35;11.85;;;4.60;72.60;;;;;;5047028;28;20046;-71
2022/04/12 03:47:51;;;;;;;16.60;11.55;;;4.60;72.40;;;;;;5054749;28;20029;-71
2022/04/12 03:50:17;;;;;;;16.20;12.27;;;4.60;72.40;;;;;;5046908;28;20044;-71
2022/04/12 03:52:42;;;;;;;17.40;11.63;;;4.60;72.50;;;;;;5030625;28;20509;-71
2022/04/12 03:55:10;;;;;;;19.73;11.93;;;4.60;72.50;;;;;;5064379;28;20057;-71
2022/04/12 03:57:37;;;;;;;19.70;11.82;;;4.60;72.50;;;;;;5011611;28;20131;-71
2022/04/12 04:00:08;;;;;;;17.05;12.02;;;4.70;72.50;;;;;;5059357;28;20511;-71
2022/04/12 04:02:34;;;;;;;17.85;11.93;;;4.70;72.20;;;;;;5050796;28;20040;-71
2022/04/12 04:05:00;;;;;;;16.17;11.38;;;4.70;72.30;;;;;;5026150;28;20158;-71
2022/04/12 04:07:27;;;;;;;15.55;11.32;;;4.70;72.40;;;;;;5048187;28;20131;-71
2022/04/12 04:09:53;;;;;;;16.80;12.15;;;4.70;72.30;;;;;;5015554;28;20040;-72
2022/04/12 04:12:20;;;;;;;23.52;11.63;;;4.70;72.40;;;;;;5047478;28;20043;-71
2022/04/12 04:14:46;;;;;;;16.77;11.93;;;4.70;72.50;;;;;;5028786;28;20607;-71
2022/04/12 04:17:12;;;;;;;18.45;12.05;;;4.70;72.60;;;;;;5054560;28;20036;-71
2022/04/12 04:19:38;;;;;;;18.67;12.30;;;4.70;72.40;;;;;;5019635;28;20092;-71
2022/04/12 04:22:04;;;;;;;16.33;11.82;;;4.70;72.60;;;;;;5028312;28;20453;-71
2022/04/12 04:24:30;;;;;;;19.88;12.00;;;4.70;72.40;;;;;;5034474;28;20132;-71
2022/04/12 04:26:56;;;;;;;16.70;11.40;;;4.70;72.40;;;;;;5062926;28;20129;-71
2022/04/12 04:29:23;;;;;;;17.93;11.90;;;4.70;72.30;;;;;;5039195;28;20043;-71
2022/04/12 04:31:51;;;;;;;17.52;12.48;;;4.70;72.40;;;;;;5040699;28;20148;-71
2022/04/12 04:34:16;;;;;;;17.98;12.45;;;4.70;72.60;;;;;;5040037;28;20093;-72
2022/04/12 04:36:42;;;;;;;18.47;11.53;;;4.70;72.30;;;;;;5053480;28;20049;-71
2022/04/12 04:39:08;;;;;;;18.13;12.97;;;4.70;72.40;;;;;;5049053;28;20305;-71
2022/04/12 04:41:34;;;;;;;20.73;12.63;;;4.70;72.30;;;;;;5029531;28;20064;-71
2022/04/12 04:44:00;;;;;;;18.47;11.80;;;4.70;72.30;;;;;;5045807;28;20089;-71
2022/04/12 04:46:26;;;;;;;17.10;12.02;;;4.80;72.40;;;;;;5050594;28;20041;-71
2022/04/12 04:48:52;;;;;;;17.53;12.23;;;4.80;72.20;;;;;;5062396;28;20105;-71
2022/04/12 04:51:17;;;;;;;16.47;11.97;;;4.80;72.00;;;;;;5039316;28;20040;-71
2022/04/12 04:53:49;;;;;;;17.43;11.97;;;4.80;72.30;;;;;;5047154;28;20043;-71
2022/04/12 04:56:15;;;;;;;18.58;11.93;;;4.80;72.20;;;;;;5063882;28;20048;-71
2022/04/12 04:58:40;;;;;;;18.73;12.07;;;4.80;72.10;;;;;;5064138;28;20036;-70
2022/04/12 05:01:06;;;;;;;16.57;11.67;;;4.80;72.10;;;;;;5041320;28;20314;-71
2022/04/12 05:03:32;;;;;;;17.50;12.00;;;4.80;72.20;;;;;;5045174;28;20075;-71
2022/04/12 05:05:57;;;;;;;15.97;11.67;;;4.80;72.20;;;;;;5048704;28;20516;-71
2022/04/12 05:08:24;;;;;;;16.37;12.53;;;4.80;72.10;;;;;;5036728;28;20040;-71
2022/04/12 05:10:49;;;;;;;16.05;11.07;;;4.80;72.10;;;;;;5008963;28;20036;-71
2022/04/12 05:13:16;;;;;;;15.70;11.40;;;4.90;71.80;;;;;;5062715;28;20088;-71
2022/04/12 05:15:42;;;;;;;16.77;12.20;;;5.00;71.60;;;;;;5051358;28;20052;-71
2022/04/12 05:18:08;;;;;;;16.73;11.00;;;5.00;71.50;;;;;;5024610;28;20048;-71
2022/04/12 05:20:34;;;;;;;17.15;11.02;;;5.00;71.50;;;;;;5045267;28;20044;-71
2022/04/12 05:23:00;;;;;;;15.30;11.53;;;5.10;71.50;;;;;;5059638;28;20473;-71
2022/04/12 05:25:26;;;;;;;17.50;12.17;;;5.10;71.20;;;;;;5058598;28;20039;-71
2022/04/12 05:27:51;;;;;;;14.77;10.93;;;5.20;71.10;;;;;;5024451;28;20512;-71
2022/04/12 05:30:17;;;;;;;15.80;11.43;;;5.20;71.10;;;;;;5054681;28;20041;-71
2022/04/12 05:32:44;;;;;;;14.63;11.47;;;5.30;71.10;;;;;;5035916;28;20165;-70
2022/04/12 05:35:11;;;;;;;15.90;10.65;;;5.30;70.70;;;;;;5035546;28;20337;-70
2022/04/12 05:37:55;;;;;;;14.85;11.05;;;5.40;70.70;;;;;;5031567;28;20483;-70
2022/04/12 05:40:22;;;;;;;16.92;11.48;;;5.50;70.50;;;;;;5041121;28;20592;-70
2022/04/12 05:42:48;;;;;;;15.55;11.20;;;5.50;70.50;;;;;;5060450;28;20119;-70
2022/04/12 05:45:15;;;;;;;17.17;11.73;;;5.60;70.40;;;;;;5052890;28;20044;-70
2022/04/12 05:47:52;;;;;;;15.60;10.48;;;5.60;70.40;;;;;;5054472;28;20122;-70
2022/04/12 05:50:27;;;;;;;14.20;10.60;;;5.70;70.20;;;;;;5056065;28;20055;-70
2022/04/12 05:52:53;;;;;;;17.08;10.93;;;5.80;70.00;;;;;;5038603;28;20040;-70
2022/04/12 05:55:21;;;;;;;17.55;11.63;;;5.80;69.70;;;;;;5036291;28;20138;-71
2022/04/12 05:57:52;;;;;;;16.98;11.30;;;5.90;69.70;;;;;;5057067;28;20082;-71
2022/04/12 06:00:20;;;;;;;19.45;10.80;;;6.00;69.40;;;;;;5066064;28;20770;-71
2022/04/12 06:02:47;;;;;;;15.50;11.15;;;6.10;69.50;;;;;;5065011;28;20132;-70
2022/04/12 06:05:14;;;;;;;16.77;10.50;;;6.10;69.40;;;;;;5062600;28;20071;-70
2022/04/12 06:07:41;;;;;;;14.07;10.65;;;6.20;69.30;;;;;;5057657;28;20135;-70
2022/04/12 06:10:07;;;;;;;16.15;11.65;;;6.20;69.00;;;;;;5058345;28;20037;-71
2022/04/12 06:12:33;;;;;;;16.15;10.48;;;6.30;68.80;;;;;;5042761;28;20135;-71
2022/04/12 06:14:59;;;;;;;13.17;10.17;;;6.40;68.80;;;;;;5057879;28;20136;-71
2022/04/12 06:17:32;;;;;;;16.93;10.83;;;6.40;68.40;;;;;;5051497;28;20146;-71
2022/04/12 06:20:12;;;;;;;15.02;10.00;;;6.50;68.40;;;;;;5080993;28;20147;-71
2022/04/12 06:22:39;;;;;;;14.40;11.05;;;6.50;68.30;;;;;;5047935;28;20363;-71
2022/04/12 06:25:06;;;;;;;14.10;10.20;;;6.50;68.30;;;;;;5039156;28;20083;-71
2022/04/12 06:27:33;;;;;;;13.50;10.18;;;6.60;68.40;;;;;;5051275;28;20040;-71
2022/04/12 06:30:08;;;;;;;14.82;9.77;;;6.60;68.50;;;;;;5035867;28;20048;-71
2022/04/12 06:32:34;;;;;;;14.52;10.55;;;6.70;68.60;;;;;;5053024;28;20049;-71
2022/04/12 06:35:01;;;;;;;12.52;10.30;;;6.70;68.30;;;;;;5050721;28;20497;-71
2022/04/12 06:37:27;;;;;;;15.70;9.82;;;6.80;68.10;;;;;;5020580;28;20045;-71
2022/04/12 06:39:53;;;;;;;17.40;10.13;;;6.80;67.90;;;;;;5052473;28;20070;-71
2022/04/12 06:42:19;;;;;;;16.52;10.73;;;6.90;67.70;;;;;;5064260;28;20044;-71
2022/04/12 06:44:45;;;;;;;15.82;10.10;;;6.90;67.60;;;;;;5052594;28;20032;-71
2022/04/12 06:47:13;;;;;;;14.73;10.18;;;7.00;67.50;;;;;;5056150;28;20044;-71
2022/04/12 06:49:38;;;;;;;15.48;10.50;;;7.00;67.40;;;;;;5026455;28;20507;-71
2022/04/12 06:52:04;;;;;;;18.03;10.57;;;7.10;67.40;;;;;;5049304;28;20041;-71
2022/04/12 06:54:30;;;;;;;13.93;9.73;;;7.10;67.40;;;;;;5004046;28;20033;-71
2022/04/12 06:56:56;;;;;;;16.50;10.60;;;7.20;67.20;;;;;;5053016;28;20045;-71
2022/04/12 06:59:22;;;;;;;14.97;10.43;;;7.30;67.30;;;;;;5041268;28;20048;-71
2022/04/12 07:01:48;;;;;;;15.18;10.02;;;7.40;67.00;;;;;;5046755;28;20055;-71
2022/04/12 07:04:13;;;;;;;14.57;9.53;;;7.50;66.40;;;;;;5057337;28;20044;-71
2022/04/12 07:06:40;;;;;;;14.63;9.82;;;7.70;66.50;;;;;;5034933;28;20049;-71
2022/04/12 07:09:08;;;;;;;15.37;10.73;;;7.80;66.80;;;;;;5037966;28;20455;-71
2022/04/12 07:11:34;;;;;;;15.27;10.15;;;8.00;66.40;;;;;;5027370;28;20456;-71
2022/04/12 07:14:00;;;;;;;13.93;9.60;;;8.10;65.60;;;;;;5002666;28;20045;-71
2022/04/12 07:16:25;;;;;;;14.33;10.20;;;8.30;65.00;;;;;;5009770;28;20041;-71
2022/04/12 07:18:51;;;;;;;14.90;10.17;;;8.40;64.60;;;;;;5028354;28;20041;-71
2022/04/12 07:21:21;;;;;;;12.53;9.50;;;8.50;64.60;;;;;;5024888;28;20405;-71
2022/04/12 07:23:50;;;;;;;13.68;9.15;;;8.60;64.30;;;;;;5014571;28;20041;-71
2022/04/12 07:26:16;;;;;;;13.52;10.25;;;8.70;64.10;;;;;;5013382;28;20037;-71
2022/04/12 07:28:42;;;;;;;11.98;9.10;;;8.80;64.30;;;;;;4994143;28;20097;-71
2022/04/12 07:31:08;;;;;;;14.00;10.00;;;8.90;63.30;;;;;;5014353;28;20502;-71
2022/04/12 07:33:33;;;;;;;12.67;8.93;;;9.00;63.70;;;;;;4996256;28;20407;-71
2022/04/12 07:35:59;;;;;;;11.33;8.87;;;9.10;63.60;;;;;;5010777;28;20045;-71
2022/04/12 07:38:25;;;;;;;15.77;9.67;;;9.20;63.30;;;;;;5010321;28;20069;-71
2022/04/12 07:40:51;;;;;;;12.30;9.20;;;9.30;63.30;;;;;;4993934;28;20045;-71
2022/04/12 07:43:17;;;;;;;13.55;8.93;;;9.40;63.10;;;;;;5036315;28;20041;-71
2022/04/12 07:45:42;;;;;;;13.10;8.53;;;9.40;62.70;;;;;;5011931;28;20044;-72
2022/04/12 07:48:08;;;;;;;14.40;9.20;;;9.50;62.90;;;;;;5016259;28;20037;-72
2022/04/12 07:50:34;;;;;;;13.57;8.67;;;9.60;62.30;;;;;;5006180;28;20505;-72
2022/04/12 07:52:59;;;;;;;12.20;9.10;;;9.70;62.20;;;;;;5009330;28;20144;-72
2022/04/12 07:55:25;;;;;;;12.60;8.23;;;9.80;62.20;;;;;;5039279;28;20102;-72
2022/04/12 07:57:51;;;;;;;12.30;8.37;;;9.90;62.10;;;;;;5029929;28;20056;-72
2022/04/12 08:00:16;;;;;;;12.43;8.73;;;10.00;61.70;;;;;;5024234;28;20049;-72
2022/04/12 08:02:42;;;;;;;13.47;8.63;;;10.10;61.00;;;;;;4999107;28;20571;-72
2022/04/12 08:05:08;;;;;;;13.27;9.50;;;10.30;61.00;;;;;;5002383;28;20059;-72
2022/04/12 08:07:34;;;;;;;11.43;8.52;;;10.40;60.00;;;;;;5047620;28;20040;-72
2022/04/12 08:10:00;;;;;;;14.43;9.27;;;10.50;60.10;;;;;;5011795;28;20049;-72
2022/04/12 08:12:25;;;;;;;15.17;8.50;;;10.70;59.60;;;;;;5026104;28;20531;-72
2022/04/12 08:14:51;;;;;;;12.13;8.33;;;10.80;59.60;;;;;;5039128;28;20441;-73
2022/04/12 08:17:17;;;;;;;13.07;9.00;;;10.90;59.50;;;;;;5044163;28;20040;-73
2022/04/12 08:19:42;;;;;;;13.43;9.10;;;11.00;59.50;;;;;;5025152;28;20041;-73
2022/04/12 08:22:09;;;;;;;10.83;8.43;;;11.00;59.20;;;;;;5041336;28;20040;-72
2022/04/12 08:24:36;;;;;;;13.13;8.65;;;11.10;59.30;;;;;;5026547;28;20037;-72
2022/04/12 08:27:03;;;;;;;11.60;9.07;;;11.20;58.70;;;;;;5024995;28;20480;-72
2022/04/12 08:29:29;;;;;;;12.55;8.55;;;11.30;58.60;;;;;;5042212;28;20737;-72
2022/04/12 08:31:55;;;;;;;12.60;8.63;;;11.40;58.70;;;;;;5041692;28;20091;-72
2022/04/12 08:34:20;;;;;;;12.30;8.57;;;11.40;59.00;;;;;;5025575;28;20460;-72
2022/04/12 08:36:46;;;;;;;10.93;8.00;;;11.60;59.10;;;;;;5009353;28;20041;-72
2022/04/12 08:39:13;;;;;;;11.60;8.77;;;11.70;59.00;;;;;;5008265;28;20422;-72
2022/04/12 08:41:40;;;;;;;12.80;8.75;;;11.90;58.60;;;;;;5042534;28;20091;-72
2022/04/12 08:44:07;;;;;;;13.18;8.75;;;12.00;58.10;;;;;;5050146;28;20033;-72
2022/04/12 08:46:35;;;;;;;13.80;8.52;;;12.10;57.10;;;;;;5026563;28;20064;-73
2022/04/12 08:49:02;;;;;;;11.70;8.25;;;12.30;57.40;;;;;;5021073;28;20352;-72
2022/04/12 08:51:28;;;;;;;14.35;8.60;;;12.30;56.80;;;;;;5024731;28;20041;-73
2022/04/12 08:53:58;;;;;;;11.73;8.50;;;12.40;57.40;;;;;;5027891;28;20520;-73
2022/04/12 08:56:26;;;;;;;13.32;8.55;;;12.60;57.10;;;;;;5025422;28;20060;-73
2022/04/12 08:58:51;;;;;;;12.65;8.55;;;12.70;57.30;;;;;;5045371;28;20095;-73
2022/04/12 09:01:17;;;;;;;11.10;8.53;;;12.80;55.80;;;;;;5010168;28;20048;-73
2022/04/12 09:03:46;;;;;;;10.87;8.13;;;12.90;55.60;;;;;;5031442;28;20048;-73
2022/04/12 09:06:12;;;;;;;12.60;8.07;;;13.10;56.10;;;;;;5044228;28;20057;-73
2022/04/12 09:08:45;;;;;;;13.10;8.60;;;13.20;55.90;;;;;;5044810;28;20722;-73
2022/04/12 09:11:13;;;;;;;14.90;8.07;;;13.30;54.10;;;;;;5030519;28;20794;-73
2022/04/12 09:13:40;;;;;;;13.00;8.37;;;13.40;55.10;;;;;;5027913;28;21114;-73
2022/04/12 09:16:09;;;;;;;12.50;7.77;;;13.50;55.30;;;;;;5041534;28;20310;-73
2022/04/12 09:18:44;;;;;;;11.03;8.00;;;13.70;55.50;;;;;;5055111;28;20283;-73
2022/04/12 09:21:10;;;;;;;12.32;8.68;;;13.80;54.20;;;;;;5045725;28;20337;-73
2022/04/12 09:23:36;;;;;;;11.57;8.13;;;13.90;54.10;;;;;;5026675;28;20120;-73
2022/04/12 09:26:02;;;;;;;13.77;8.57;;;13.90;54.10;;;;;;5027554;28;20354;-73
2022/04/12 09:28:41;;;;;;;12.23;8.00;;;13.90;53.70;;;;;;5044246;28;20036;-73
2022/04/12 09:31:14;;;;;;;11.67;7.80;;;14.00;53.80;;;;;;5028939;28;20102;-73
2022/04/12 09:33:44;;;;;;;11.03;7.93;;;14.20;54.60;;;;;;5030423;28;20354;-73
2022/04/12 09:36:10;;;;;;;9.17;7.60;;;14.30;53.50;;;;;;5032113;28;20358;-73
2022/04/12 09:38:38;;;;;;;12.20;7.87;;;14.40;53.90;;;;;;5034065;28;20767;-73
2022/04/12 09:41:29;;;;;;;11.40;7.97;;;14.50;54.30;;;;;;5049155;28;20308;-73
2022/04/12 09:44:05;;;;;;;10.43;8.07;;;14.60;54.10;;;;;;5039954;28;20311;-73
2022/04/12 09:46:32;;;;;;;14.10;8.07;;;14.80;52.70;;;;;;5049234;28;20276;-72
2022/04/12 09:48:58;;;;;;;12.03;8.67;;;14.90;53.00;;;;;;5047476;28;20344;-72
2022/04/12 09:51:24;;;;;;;10.10;7.93;;;15.10;52.70;;;;;;5049537;28;20280;-72
2022/04/12 09:53:51;;;;;;;11.30;8.00;;;15.20;52.80;;;;;;5033744;28;20033;-72
2022/04/12 09:56:29;;;;;;;14.43;8.70;;;15.40;52.70;;;;;;5047409;28;20359;-72
2022/04/12 09:59:00;;;;;;;12.13;7.90;;;15.60;52.90;;;;;;5052612;28;20284;-73
2022/04/12 10:01:27;;;;;;;13.43;8.17;;;15.70;52.10;;;;;;5032751;28;20842;-72
2022/04/12 10:03:55;;;;;;;13.60;8.37;;;15.90;51.90;;;;;;5037156;28;20598;-70
2022/04/12 10:06:23;;;;;;;13.67;8.20;;;16.00;51.20;;;;;;5033392;28;20310;-71
2022/04/12 10:08:59;;;;;;;11.77;8.57;;;16.10;51.00;;;;;;5032046;28;20311;-68
2022/04/12 10:11:26;;;;;;;11.33;8.27;;;16.10;51.00;;;;;;5035176;28;20363;-72
2022/04/12 10:13:52;;;;;;;11.70;8.13;;;16.20;50.80;;;;;;5050716;28;20756;-71
2022/04/12 10:16:20;;;;;;;11.77;7.80;;;16.20;51.10;;;;;;5046248;28;20878;-73
2022/04/12 10:18:46;;;;;;;13.07;8.13;;;16.20;50.60;;;;;;5031102;28;20280;-72
2022/04/12 10:21:13;;;;;;;12.47;7.93;;;16.20;51.20;;;;;;5026566;28;20327;-72
2022/04/12 10:23:46;;;;;;;14.07;8.17;;;16.30;51.20;;;;;;5046469;28;20295;-73
2022/04/12 10:26:13;;;;;;;13.47;7.57;;;16.40;50.80;;;;;;5046445;28;20288;-73
2022/04/12 10:28:39;;;;;;;11.13;7.90;;;16.50;51.50;;;;;;5029548;28;20287;-73
2022/04/12 10:31:14;;;;;;;15.50;8.07;;;16.60;50.50;;;;;;5028817;28;20316;-72
2022/04/12 10:33:40;;;;;;;10.63;7.90;;;16.70;50.60;;;;;;5048716;28;20291;-73
2022/04/12 10:36:07;;;;;;;10.93;7.80;;;16.80;50.30;;;;;;5033128;28;20375;-73
2022/04/12 10:38:41;;;;;;;11.67;8.33;;;16.80;49.70;;;;;;5048147;28;20713;-73
2022/04/12 10:41:28;;;;;;;11.98;8.32;;;16.90;50.10;;;;;;5047843;28;20380;-73
2022/04/12 10:43:58;;;;;;;11.37;8.20;;;17.00;49.30;;;;;;5055089;28;20044;-72
2022/04/12 10:46:26;;;;;;;11.10;8.07;;;17.10;49.80;;;;;;5046945;28;20283;-73
2022/04/12 10:48:56;;;;;;;9.93;7.43;;;17.30;49.80;;;;;;5015737;28;20322;-73
2022/04/12 10:51:39;;;;;;;11.33;7.87;;;17.30;48.90;;;;;;5045803;28;20291;-73
2022/04/12 10:54:10;;;;;;;12.37;8.23;;;17.40;48.50;;;;;;5031899;28;20734;-73
2022/04/12 10:56:35;;;;;;;12.77;8.23;;;17.50;48.70;;;;;;5049327;28;20309;-73
2022/04/12 10:59:02;;;;;;;11.93;7.57;;;17.50;48.40;;;;;;5037506;28;20861;-73
2022/04/12 11:01:33;;;;;;;9.27;7.40;;;17.70;47.90;;;;;;5051096;28;20483;-73
2022/04/12 11:04:06;;;;;;;10.47;7.23;;;17.80;48.50;;;;;;5052549;28;20353;-74
2022/04/12 11:06:33;;;;;;;11.53;7.60;;;17.90;48.40;;;;;;5034596;28;20295;-73
2022/04/12 11:09:16;;;;;;;11.10;7.90;;;18.00;46.30;;;;;;5050083;28;20361;-73
2022/04/12 11:11:52;;;;;;;10.80;7.67;;;18.00;47.30;;;;;;5029762;28;21119;-73
2022/04/12 11:14:25;;;;;;;12.80;7.30;;;18.00;48.10;;;;;;5034581;28;20271;-73
2022/04/12 11:16:56;;;;;;;11.03;7.30;;;17.90;46.90;;;;;;5056004;28;20279;-73
2022/04/12 11:19:24;;;;;;;9.40;6.90;;;17.90;46.90;;;;;;5052958;28;20398;-73
2022/04/12 11:21:54;;;;;;;8.97;6.93;;;17.90;47.90;;;;;;5047824;28;20294;-73
2022/04/12 11:24:24;;;;;;;10.33;7.40;;;17.90;46.80;;;;;;5047559;28;20286;-73
2022/04/12 11:27:04;;;;;;;9.80;7.20;;;17.90;47.20;;;;;;5046896;28;20303;-73
2022/04/12 11:29:31;;;;;;;8.97;6.80;;;17.90;47.20;;;;;;5047876;28;20689;-73
2022/04/12 11:31:58;;;;;;;10.73;7.47;;;18.00;48.20;;;;;;5031745;28;20633;-73
2022/04/12 11:34:26;;;;;;;11.17;7.00;;;18.10;48.20;;;;;;5046266;28;20291;-73
2022/04/12 11:36:54;;;;;;;10.23;6.97;;;18.20;47.40;;;;;;5048178;28;20783;-73
2022/04/12 11:39:22;;;;;;;10.13;7.10;;;18.20;47.50;;;;;;5047145;28;20307;-73
2022/04/12 11:41:49;;;;;;;10.73;7.23;;;18.40;47.50;;;;;;5047374;28;20395;-73
2022/04/12 11:44:15;;;;;;;10.30;7.10;;;18.50;47.50;;;;;;5055688;28;20361;-73
2022/04/12 11:46:41;;;;;;;10.13;7.13;;;18.60;48.00;;;;;;5032022;28;20333;-74
2022/04/12 11:49:11;;;;;;;9.70;7.13;;;18.70;47.30;;;;;;5046640;28;20438;-73
2022/04/12 11:51:43;;;;;;;9.23;6.83;;;18.70;47.50;;;;;;5049792;28;20700;-73
2022/04/12 11:54:32;;;;;;;11.90;6.93;;;18.80;47.80;;;;;;5031667;28;20715;-73
2022/04/12 11:57:03;;;;;;;10.23;6.27;;;18.90;46.50;;;;;;5033028;28;20287;-73
2022/04/12 11:59:31;;;;;;;8.33;6.30;;;18.90;47.50;;;;;;5036979;28;20307;-74
2022/04/12 12:02:02;;;;;;;8.93;6.33;;;19.10;48.00;;;;;;5031617;28;20639;-73
2022/04/12 12:04:35;;;;;;;9.07;6.23;;;19.10;46.70;;;;;;5055188;28;20291;-73
2022/04/12 12:07:08;;;;;;;9.23;6.63;;;19.00;45.70;;;;;;5034185;28;20278;-74
2022/04/12 12:09:36;;;;;;;10.13;7.00;;;18.90;45.50;;;;;;5037419;28;20843;-73
2022/04/12 12:12:09;;;;;;;9.00;6.63;;;18.80;46.70;;;;;;5051709;28;20313;-73
2022/04/12 12:14:35;;;;;;;9.10;6.63;;;18.80;47.30;;;;;;5054597;28;20334;-73
2022/04/12 12:17:12;;;;;;;10.47;6.90;;;18.70;46.90;;;;;;5034804;28;20286;-74
2022/04/12 12:19:39;;;;;;;10.40;7.43;;;18.70;46.50;;;;;;5068999;28;20355;-73
2022/04/12 12:22:11;;;;;;;10.20;7.03;;;18.70;47.60;;;;;;5057745;28;20771;-73
2022/04/12 12:24:56;;;;;;;9.83;7.53;;;18.90;48.30;;;;;;5032110;28;20282;-73
2022/04/12 12:27:34;;;;;;;7.90;6.53;;;19.10;46.80;;;;;;5032410;28;20286;-73
2022/04/12 12:30:06;;;;;;;14.50;6.70;;;19.20;47.60;;;;;;5049459;28;20381;-73
2022/04/12 12:32:38;;;;;;;12.40;6.63;;;19.20;47.10;;;;;;5050579;28;20291;-73
2022/04/12 12:35:14;;;;;;;12.27;8.07;;;19.20;47.50;;;;;;5032055;28;20283;-73
2022/04/12 12:37:42;;;;;;;11.63;7.07;;;19.30;47.00;;;;;;5044162;28;20332;-73
2022/04/12 12:40:22;;;;;;;8.40;6.07;;;19.20;46.70;;;;;;5060425;28;20308;-73
2022/04/12 12:42:49;;;;;;;10.70;6.57;;;19.20;46.60;;;;;;5056323;28;20278;-73